• Join FlightAware (Why Join?)
  • Login
  • US Flag 
10:17AM EDT


 

Airport Tracker/Info


-or-


 

Live Flight TrackerFlight Track Log ✈ AAL1459 ✈ 16-Apr-2013 ✈ KORD - KRNO

Flight Track Log - Related Links

Times and Time Zones

All times are in EDT time to prevent confusion due to time zone crossing. See the AAL1459 flight status page for this flight to view local times or setup timezone preferences in your user account.

Time Position Orientation Groundspeed Altitude Reporting Facility
EDT Latitude Longitude Course Direction KTS MPH feet Rate Location/Type
06:38PM 42.0000 -87.9500 261° West 180 207 2,800  Level Chicago TRACON
06:39PM 42.0500 -87.9833 334° Northwest 235 270 4,900 2,340 Climbing Chicago TRACON
06:41PM 41.9333 -88.3179 270° West  Level FlightAware Approximate
06:42PM 41.9167 -88.4573 270° West  Level FlightAware Approximate
06:42PM 42.1144 -88.1744 294° West 265 305 10,900  Level Chicago Center
06:43PM 41.9013 -88.5980 261° West  Level FlightAware Approximate
06:43PM 42.0803 -88.2775 246° West 298 343 13,200  Level Chicago Center
06:44PM 41.8847 -88.7382 261° West  Level FlightAware Approximate
06:44PM 42.0469 -88.4125 252° West 318 366 17,100  Level Chicago Center
06:45PM 42.0172 -88.5294 251° West 329 379 19,000 2,100 Climbing Chicago Center
06:46PM 41.9842 -88.6567 251° West 358 412 21,500 2,220 Climbing Chicago Center
06:47PM 41.9533 -88.7864 252° West 366 421 23,700 1,980 Climbing Chicago Center
06:48PM 41.9258 -88.9214 255° West 376 433 25,700 1,920 Climbing Chicago Center
06:49PM 41.9083 -89.0931 262° West 390 449 27,700 1,800 Climbing Chicago Center
06:50PM 41.8917 -89.2372 261° West 396 456 29,500 1,800 Climbing Chicago Center
06:51PM 41.8739 -89.3808 261° West 395 455 31,500 1,620 Climbing Chicago Center
06:52PM 41.8572 -89.5217 261° West 387 445 32,900 1,200 Climbing Chicago Center
06:53PM 41.8408 -89.6619 261° West 385 443 34,000 1,140 Climbing Chicago Center
06:54PM 41.8203 -89.8311 261° West 386 444 35,300 960 Climbing Chicago Center
06:55PM 41.8064 -89.9522 261° West 382 440 36,000 300 Climbing Chicago Center
06:56PM 41.7867 -90.1047 260° West 383 441 36,000  Level Chicago Center
06:57PM 41.7683 -90.2422 260° West 379 436 36,000 180 Level Chicago Center
06:58PM 41.7506 -90.3833 260° West 384 442 36,400 720 Climbing Chicago Center
06:59PM 41.7292 -90.5489 260° West 378 435 37,500 720 Climbing Chicago Center
07:00PM 41.7139 -90.6717 261° West 377 434 38,000 240 Climbing Chicago Center
07:01PM 41.6950 -90.8114 260° West 382 440 38,000  Level Chicago Center
07:03PM 41.6728 -90.9794 260° West 384 442 38,000  Level Chicago Center
07:04PM 41.6539 -91.1208 260° West 387 445 38,000  Level Chicago Center
07:05PM 41.6344 -91.2625 260° West 389 448 38,000  Level Chicago Center
07:06PM 41.6153 -91.4036 260° West 388 447 38,000  Level Chicago Center
07:07PM 41.5953 -91.5431 259° West 385 443 38,000  Level Chicago Center
07:08PM 41.5761 -91.6836 260° West 385 443 38,000  Level Chicago Center
07:09PM 41.5519 -91.8503 259° West 384 442 38,000  Level Chicago Center
07:10PM 41.5331 -91.9911 260° West 387 445 38,000  Level Chicago Center
07:11PM 41.5125 -92.1300 259° West 384 442 38,000  Level Chicago Center
07:12PM 41.4919 -92.2703 259° West 386 444 38,000  Level Chicago Center
07:13PM 41.4703 -92.4133 259° West 385 443 38,000  Level Chicago Center
07:14PM 41.4494 -92.5533 259° West 388 447 38,000  Level Chicago Center
07:14PM 41.4375 -92.6400 260° West 388 447 38,000  Level Minneapolis Center
07:15PM 41.4169 -92.7792 259° West 389 448 38,000  Level Minneapolis Center
07:16PM 41.3947 -92.9194 258° West 390 449 38,000  Level Minneapolis Center
07:17PM 41.3692 -93.0875 259° West 390 449 38,000  Level Minneapolis Center
07:19PM 41.3481 -93.2264 259° West 388 447 38,000  Level Minneapolis Center
07:20PM 41.3250 -93.3667 258° West 389 448 38,000  Level Minneapolis Center
07:21PM 41.3033 -93.5047 258° West 389 448 38,000  Level Minneapolis Center
07:22PM 41.2842 -93.6353 259° West 377 434 38,000  Level Minneapolis Center
07:23PM 41.2578 -93.8017 258° West 383 441 38,000  Level Minneapolis Center
07:24PM 41.2356 -93.9394 258° West 385 443 38,000  Level Minneapolis Center
07:25PM 41.2133 -94.0794 258° West 388 447 38,000  Level Minneapolis Center
07:26PM 41.1889 -94.2219 257° West 393 452 38,000  Level Minneapolis Center
07:27PM 41.1669 -94.3578 258° West 390 449 38,000  Level Minneapolis Center
07:28PM 41.1439 -94.4967 258° West 389 448 38,000  Level Minneapolis Center
07:29PM 41.1167 -94.6669 258° West 390 449 38,000  Level Minneapolis Center
07:30PM 41.0867 -94.8353 257° West 391 450 38,000  Level Minneapolis Center
07:31PM 41.0628 -94.9719 257° West 385 443 38,000  Level Minneapolis Center
07:32PM 41.0442 -95.0819 257° West 383 441 38,000  Level Minneapolis Center
07:33PM 41.0164 -95.2450 257° West 379 436 38,000  Level Minneapolis Center
07:34PM 40.9919 -95.3797 257° West 377 434 38,000  Level Minneapolis Center
07:35PM 40.9681 -95.5150 257° West 377 434 38,000  Level Minneapolis Center
07:36PM 40.9442 -95.6494 257° West 375 432 38,000  Level Minneapolis Center
07:37PM 40.9147 -95.8106 256° West 373 429 38,000  Level Minneapolis Center
07:38PM 40.8858 -95.9733 257° West 375 432 38,000  Level Minneapolis Center
07:39PM 40.8617 -96.1075 257° West 375 432 38,000  Level Minneapolis Center
07:41PM 40.8369 -96.2433 257° West 377 434 38,000  Level Minneapolis Center
07:42PM 40.8117 -96.3786 256° West 379 436 38,000  Level Minneapolis Center
07:43PM 40.7864 -96.5147 256° West 380 437 38,000  Level Minneapolis Center
07:44PM 40.7614 -96.6519 257° West 383 441 38,000  Level Minneapolis Center
07:45PM 40.7353 -96.7892 256° West 384 442 38,000  Level Minneapolis Center
07:46PM 40.7097 -96.9247 256° West 383 441 38,000  Level Minneapolis Center
07:47PM 40.6781 -97.0886 256° West 383 441 38,000  Level Minneapolis Center
07:48PM 40.6528 -97.2228 256° West 380 437 38,000  Level Minneapolis Center
07:49PM 40.6264 -97.3550 255° West 380 437 38,000  Level Minneapolis Center
07:50PM 40.6008 -97.4875 256° West 376 433 38,000  Level Minneapolis Center
07:51PM 40.5753 -97.6211 256° West 376 433 38,000  Level Minneapolis Center
07:52PM 40.5489 -97.7542 255° West 375 432 38,000  Level Minneapolis Center
07:53PM 40.5217 -97.8875 255° West 376 433 38,000  Level Minneapolis Center
07:54PM 40.5019 -98.0789 262° West 379 436 38,000  Level Minneapolis Center
07:55PM 40.5089 -98.2206 274° West 385 443 38,000  Level Minneapolis Center
07:56PM 40.5142 -98.3617 273° West 385 443 38,000  Level Minneapolis Center
07:57PM 40.5203 -98.5039 273° West 386 444 38,000  Level Minneapolis Center
07:58PM 40.5247 -98.6447 272° West 385 443 38,000  Level Minneapolis Center
07:59PM 40.5303 -98.7861 273° West 386 444 38,000  Level Minneapolis Center
08:00PM 40.5358 -98.9303 273° West 390 449 38,000  Level Minneapolis Center
08:01PM 40.5414 -99.0753 273° West 393 452 38,000  Level Minneapolis Center
08:02PM 40.5444 -99.1922 272° West 396 456 38,000  Level Denver Center
08:03PM 40.5494 -99.3389 273° West 399 459 38,000  Level Denver Center
08:04PM 40.5544 -99.4853 273° West 400 460 38,000  Level Denver Center
08:05PM 40.5586 -99.6322 272° West 401 461 38,000  Level Denver Center
08:06PM 40.5628 -99.8064 272° West 397 457 38,000  Level Denver Center
08:07PM 40.5672 -99.9450 272° West 399 459 38,000  Level Denver Center
08:08PM 40.5706 -100.0819 272° West 393 452 38,000  Level Denver Center
08:09PM 40.5747 -100.2392 272° West 385 443 38,000  Level Denver Center
08:10PM 40.5775 -100.3719 272° West 380 437 38,000  Level Denver Center
08:11PM 40.5814 -100.5275 272° West 379 436 38,000  Level Denver Center
08:12PM 40.5836 -100.6606 271° West 378 435 38,000  Level Denver Center
08:13PM 40.5864 -100.7897 272° West 367 422 38,000  Level Denver Center
08:14PM 40.5883 -100.9408 271° West 367 422 38,000  Level Denver Center
08:15PM 40.5906 -101.0708 271° West 368 423 38,000  Level Denver Center
08:16PM 40.5925 -101.2211 271° West 368 423 38,000  Level Denver Center
08:17PM 40.5956 -101.3497 272° West 367 422 38,000  Level Denver Center
08:19PM 40.5989 -101.4786 272° West 368 423 38,000  Level Denver Center
08:20PM 40.6019 -101.6297 272° West 368 423 38,000  Level Denver Center
08:21PM 40.6044 -101.7600 271° West 372 428 38,000  Level Denver Center
08:22PM 40.6058 -101.9131 271° West 375 432 38,000  Level Denver Center
08:23PM 40.6039 -102.0436 269° West 376 433 38,000  Level Denver Center
08:24PM 40.6047 -102.1767 271° West 381 438 38,000  Level Denver Center
08:25PM 40.6067 -102.3328 271° West 383 441 38,000  Level Denver Center
08:26PM 40.6069 -102.4656 270° West 380 437 38,000  Level Denver Center
08:27PM 40.6081 -102.6222 271° West 384 442 38,000  Level Denver Center
08:28PM 40.6069 -102.7697 269° West 384 442 38,000  Level Denver Center
08:29PM 40.6072 -102.9119 270° West 387 445 38,000  Level Denver Center
08:30PM 40.6086 -103.0553 271° West 389 448 38,000  Level Denver Center
08:31PM 40.6081 -103.2003 270° West 393 452 38,000  Level Denver Center
08:32PM 40.6075 -103.3456 270° West 395 455 38,000  Level Denver Center
08:33PM 40.6064 -103.4669 269° West 395 455 38,000  Level Denver Center
08:34PM 40.6058 -103.6378 270° West 398 458 38,000  Level Denver Center
08:35PM 40.6050 -103.7825 270° West 392 451 38,000  Level Denver Center
08:36PM 40.6044 -103.9228 270° West 383 441 38,000  Level Denver Center
08:37PM 40.6019 -104.0586 269° West 372 428 38,000  Level Denver Center
08:38PM 40.6017 -104.1992 270° West 379 436 38,000  Level Denver Center
08:39PM 40.5997 -104.3594 269° West 374 430 38,000  Level Denver Center
08:40PM 40.5981 -104.4939 269° West 368 423 38,000  Level Denver Center
08:41PM 40.5961 -104.6278 269° West 365 420 38,000  Level Denver Center
08:42PM 40.5947 -104.7631 269° West 367 422 38,000  Level Denver Center
08:43PM 40.5928 -104.9014 269° West 373 429 38,000  Level Denver Center
08:44PM 40.5886 -105.0614 268° West 372 428 38,000  Level Denver Center
08:45PM 40.5867 -105.1928 269° West 359 413 38,000  Level Denver Center
08:46PM 40.5842 -105.3231 269° West 356 410 38,000  Level Denver Center
08:47PM 40.5814 -105.4564 268° West 360 414 38,000  Level Denver Center
08:48PM 40.5786 -105.5908 268° West 364 419 38,000  Level Denver Center
08:49PM 40.5736 -105.7486 268° West 367 422 38,000  Level Denver Center
08:50PM 40.5711 -105.8847 269° West 368 423 38,000  Level Denver Center
08:51PM 40.5683 -106.0225 269° West 372 428 38,000  Level Denver Center
08:53PM 40.5639 -106.1578 268° West 374 430 38,000  Level Denver Center
08:54PM 40.5611 -106.3061 269° West 373 429 38,000  Level Denver Center
08:55PM 40.5572 -106.4347 268° West 369 425 38,000  Level Denver Center
08:56PM 40.5522 -106.5619 267° West 369 425 38,000  Level Denver Center
08:57PM 40.5483 -106.6956 268° West 367 422 38,000  Level Denver Center
08:58PM 40.5439 -106.8300 268° West 369 425 38,000  Level Denver Center
08:59PM 40.5397 -106.9664 268° West 373 429 38,000  Level Denver Center
09:00PM 40.5353 -107.1297 268° West 374 430 38,000  Level Denver Center
09:01PM 40.5292 -107.2542 266° West 374 430 38,000  Level Denver Center
09:02PM 40.5244 -107.4056 268° West 372 428 38,000  Level Denver Center
09:03PM 40.5189 -107.5339 267° West 370 426 38,000  Level Denver Center
09:04PM 40.5128 -107.6839 267° West 369 425 38,000  Level Denver Center
09:05PM 40.5072 -107.8350 267° West 371 427 38,000  Level Denver Center
09:06PM 40.5011 -107.9875 267° West 375 432 38,000  Level Denver Center
09:07PM 40.5128 -108.1233 276° West 393 452 38,000  Level Denver Center
09:08PM 40.5211 -108.2006 278° West 394 453 38,000  Level Salt Lake Center
09:09PM 40.5353 -108.3369 278° West 393 452 38,000  Level Salt Lake Center
09:09PM 40.5436 -108.4158 278° West 392 451 38,000  Level Denver Center
09:10PM 40.5572 -108.5503 278° West 389 448 38,000  Level Denver Center
09:11PM 40.5731 -108.7078 278° West 389 448 38,000  Level Denver Center
09:12PM 40.5853 -108.8414 277° West 387 445 38,000  Level Denver Center
09:13PM 40.5933 -108.9219 278° West 389 448 38,000  Level Salt Lake Center
09:14PM 40.6069 -109.0603 277° West 395 455 38,000  Level Salt Lake Center
09:14PM 40.6150 -109.1372 278° West 394 453 38,000  Level Denver Center
09:15PM 40.6289 -109.2975 277° West 395 455 38,000  Level Denver Center
09:16PM 40.6336 -109.3447 278° West 397 457 38,000  Level Salt Lake Center
09:17PM 40.6486 -109.5047 277° West 396 456 38,000  Level Salt Lake Center
09:18PM 40.6611 -109.6456 277° West 402 463 38,000  Level Salt Lake Center
09:19PM 40.6764 -109.8086 277° West 403 464 38,000  Level Salt Lake Center
09:20PM 40.6886 -109.9486 277° West 403 464 38,000  Level Salt Lake Center
09:21PM 40.7014 -110.0906 277° West 406 467 38,000  Level Salt Lake Center
09:22PM 40.7153 -110.2511 277° West 408 470 38,000  Level Salt Lake Center
09:23PM 40.7269 -110.3933 276° West 408 470 38,000  Level Salt Lake Center
09:24PM 40.7414 -110.5594 277° West 408 470 38,000  Level Salt Lake Center
09:25PM 40.7514 -110.6911 276° West 404 465 38,000  Level Salt Lake Center
09:26PM 40.7639 -110.8386 276° West 404 465 38,000  Level Salt Lake Center
09:27PM 40.7789 -111.0156 276° West 406 467 38,000  Level Salt Lake Center
09:28PM 40.7906 -111.1625 276° West 404 465 38,000  Level Salt Lake Center
09:29PM 40.8014 -111.3117 276° West 407 468 38,000  Level Salt Lake Center
09:30PM 40.8128 -111.4606 276° West 409 471 38,000  Level Salt Lake Center
09:31PM 40.8239 -111.6067 276° West 398 458 38,000  Level Salt Lake Center
09:32PM 40.8350 -111.7542 276° West 399 459 38,000  Level Salt Lake Center
09:33PM 40.8458 -111.9006 276° West 396 456 38,000  Level Salt Lake Center
09:34PM 40.8450 -112.0486 270° West 407 468 38,000  Level Salt Lake Center
09:35PM 40.8367 -112.1933 266° West 395 455 38,000  Level Salt Lake Center
09:36PM 40.8281 -112.3406 266° West 402 463 38,000  Level Salt Lake Center
09:37PM 40.8181 -112.4881 265° West 404 465 38,000  Level Salt Lake Center
09:38PM 40.8081 -112.6392 265° West 412 474 38,000  Level Salt Lake Center
09:39PM 40.7978 -112.7894 265° West 413 475 38,000  Level Salt Lake Center
09:40PM 40.7872 -112.9392 265° West 410 472 38,000  Level Salt Lake Center
09:41PM 40.7750 -113.1178 265° West 409 471 38,000  Level Salt Lake Center
09:42PM 40.7642 -113.2650 264° West 405 466 38,000  Level Salt Lake Center
09:43PM 40.7536 -113.4119 265° West 403 464 38,000  Level Salt Lake Center
09:44PM 40.7431 -113.5578 265° West 402 463 38,000  Level Salt Lake Center
09:45PM 40.7314 -113.7044 264° West 403 464 38,000  Level Salt Lake Center
09:46PM 40.7231 -113.8511 266° West 402 463 38,000  Level Salt Lake Center
09:47PM 40.7181 -114.0000 268° West 406 467 38,000  Level Salt Lake Center
09:48PM 40.7133 -114.1486 268° West 407 468 38,000  Level Salt Lake Center
09:49PM 40.7056 -114.2981 266° West 409 471 38,000  Level Salt Lake Center
09:50PM 40.7006 -114.4483 268° West 411 473 38,000  Level Salt Lake Center
09:51PM 40.6919 -114.6300 266° West 414 476 38,000  Level Salt Lake Center
09:52PM 40.6814 -114.7831 265° West 418 481 38,000  Level Salt Lake Center
09:53PM 40.6597 -114.9253 259° West 424 488 38,000  Level Salt Lake Center
09:54PM 40.6356 -115.0950 259° West 423 487 38,000  Level Salt Lake Center
09:55PM 40.6125 -115.2403 258° West 423 487 38,000  Level Salt Lake Center
09:57PM 40.5936 -115.3861 260° West 423 487 38,000  Level Salt Lake Center
09:58PM 40.5703 -115.5556 260° West 422 486 38,000  Level Salt Lake Center
09:59PM 40.5494 -115.7014 259° West 423 487 38,000  Level Salt Lake Center
10:00PM 40.5286 -115.8467 259° West 423 487 38,000  Level Salt Lake Center
10:01PM 40.5039 -116.0172 259° West 425 489 38,000  Level Salt Lake Center
10:02PM 40.4836 -116.1633 260° West 425 489 38,000  Level Salt Lake Center
10:03PM 40.4586 -116.3353 259° West 428 493 38,000  Level Salt Lake Center
10:04PM 40.4381 -116.4806 260° West 425 489 38,000  Level Salt Lake Center
10:05PM 40.4158 -116.6272 259° West 425 489 38,000  Level Salt Lake Center
10:06PM 40.3933 -116.7800 259° West 427 491 38,000  Level Salt Lake Center
10:07PM 40.3661 -116.9556 259° West 427 491 38,000  Level Salt Lake Center
10:08PM 40.3436 -117.1017 259° West 426 490 38,000  Level Salt Lake Center
10:09PM 40.3203 -117.2481 258° West 427 491 38,000  Level Salt Lake Center
10:10PM 40.2914 -117.4167 257° West 425 489 38,000  Level Salt Lake Center
10:11PM 40.2339 -117.5497 241° Southwest 436 502 38,000  Level Salt Lake Center
10:12PM 40.1661 -117.7008 240° Southwest 433 498 38,000 -120 Level Salt Lake Center
10:13PM 40.1069 -117.8294 239° Southwest 432 497 37,800 -420 Descending Salt Lake Center
10:13PM 40.0856 -117.8819 242° Southwest 434 499 37,500 -1,020 Descending Oakland Center
10:14PM 40.0236 -118.0189 239° Southwest 437 503 36,500 -1,500 Descending Oakland Center
10:15PM 39.9617 -118.1531 239° Southwest 434 499 34,500 -2,640 Descending Oakland Center
10:16PM 39.8975 -118.2931 239° Southwest 445 512 31,200 -2,220 Descending Oakland Center
10:17PM 39.8336 -118.4331 239° Southwest 450 518 30,000 -1,140 Descending Oakland Center
10:18PM 39.7700 -118.5719 239° Southwest 450 518 29,000 -600 Descending Oakland Center
10:19PM 39.7058 -118.7086 239° Southwest 448 516 28,900 -1,380 Descending Oakland Center
10:20PM 39.6428 -118.8433 239° Southwest 443 510 26,200 -2,880 Descending Oakland Center
10:21PM 39.5822 -118.9733 239° Southwest 429 494 23,100 -2,820 Descending Oakland Center
10:22PM 39.5242 -119.0956 238° Southwest 407 468 20,500 -2,400 Descending Oakland Center
10:23PM 39.4572 -119.2375 239° Southwest 389 448 18,300 -1,920 Descending Oakland Center
10:24PM 39.4011 -119.3558 238° Southwest 387 445 16,700 -1,560 Descending Oakland Center
10:25PM 39.3481 -119.4681 239° Southwest 369 425 15,200 -1,320 Descending Oakland Center
10:26PM 39.2994 -119.5694 238° Southwest 340 391 14,100 -1,200 Descending Oakland Center
10:27PM 39.2406 -119.6375 222° Southwest 304 350 12,800 -1,260 Descending Oakland Center
10:28PM 39.1736 -119.6831 208° Southwest 300 345 11,600 -1,260 Descending Oakland Center
10:29PM 39.2056 -119.7536 300° West 271 312 10,300 -1,140 Descending Oakland Center
10:30PM 39.2619 -119.7711 346° North 234 269 9,300 -1,020 Descending Oakland Center
10:31PM 39.3125 -119.7675 North 205 236 8,300 -600 Descending Oakland Center
10:32PM 39.3586 -119.7653 North 200 230 8,100 -900 Descending Oakland Center
10:34PM 39.4000 -119.7667 359° North 141 162 6,500 -1,200 Descending Northern Cal TRACON
10:35PM 39.4333 -119.7667 360° North 138 159 5,700 -840 Descending Northern Cal TRACON